createdAt,value
2018-11-21T00:01:45.799Z,19.80
2018-11-21T00:04:34.935Z,20.33
2018-11-21T00:07:04.970Z,18.23
2018-11-21T00:09:35.081Z,20.17
2018-11-21T00:12:14.444Z,20.93
2018-11-21T00:14:44.542Z,22.53
2018-11-21T00:17:33.634Z,20.90
2018-11-21T00:20:22.701Z,20.20
2018-11-21T00:23:11.602Z,19.17
2018-11-21T00:25:42.950Z,20.20
2018-11-21T00:28:12.758Z,19.60
2018-11-21T00:30:42.806Z,21.60
2018-11-21T00:33:12.691Z,18.73
2018-11-21T00:35:44.865Z,19.10
2018-11-21T00:38:15.145Z,20.27
2018-11-21T00:41:13.197Z,20.30
2018-11-21T00:44:08.770Z,19.33
2018-11-21T00:46:39.608Z,20.40
2018-11-21T00:49:12.685Z,20.27
2018-11-21T00:52:01.806Z,21.17
2018-11-21T00:54:51.053Z,18.70
2018-11-21T00:57:40.320Z,19.27
2018-11-21T01:00:30.238Z,19.83
2018-11-21T01:03:00.475Z,20.57
2018-11-21T01:05:49.593Z,20.67
2018-11-21T01:08:38.691Z,20.63
2018-11-21T01:11:27.386Z,19.50
2018-11-21T01:14:16.626Z,18.70
2018-11-21T01:16:46.084Z,19.10
2018-11-21T01:19:34.857Z,18.50
2018-11-21T01:22:23.912Z,19.13
2018-11-21T01:24:53.921Z,17.83
2018-11-21T01:27:24.074Z,18.33
2018-11-21T01:30:13.188Z,19.50
2018-11-21T01:32:43.228Z,17.20
2018-11-21T01:35:32.919Z,18.10
2018-11-21T01:38:03.779Z,17.57
2018-11-21T01:40:53.241Z,17.43
2018-11-21T01:43:42.560Z,17.63
2018-11-21T01:49:03.549Z,18.13
2018-11-21T01:51:33.797Z,18.03
2018-11-21T01:54:22.892Z,19.10
2018-11-21T01:56:52.364Z,17.70
2018-11-21T01:59:41.060Z,19.13
2018-11-21T02:02:31.022Z,17.27
2018-11-21T02:05:20.411Z,17.20
2018-11-21T02:08:09.439Z,19.90
2018-11-21T02:10:39.559Z,19.27
2018-11-21T02:13:28.622Z,18.63
2018-11-21T02:16:17.354Z,19.30
2018-11-21T02:19:06.410Z,16.93
2018-11-21T02:21:55.828Z,18.43
2018-11-21T02:24:44.546Z,20.47
2018-11-21T02:27:34.838Z,18.23
2018-11-21T02:30:04.837Z,20.00
2018-11-21T02:32:47.565Z,18.10
2018-11-21T02:35:17.531Z,18.33
2018-11-21T02:37:47.010Z,17.50
2018-11-21T02:40:36.017Z,17.87
2018-11-21T02:43:24.742Z,17.87
2018-11-21T02:45:54.795Z,16.80
2018-11-21T02:48:24.639Z,17.23
2018-11-21T02:50:54.426Z,19.00
2018-11-21T02:53:26.084Z,17.57
2018-11-21T02:56:15.343Z,19.83
2018-11-21T02:58:45.390Z,18.27
2018-11-21T03:01:15.680Z,17.87
2018-11-21T03:03:45.401Z,18.07
2018-11-21T03:06:34.480Z,17.33
2018-11-21T03:09:23.831Z,17.90
2018-11-21T03:11:53.325Z,17.97
2018-11-21T03:14:23.608Z,18.30
2018-11-21T03:16:53.351Z,18.63
2018-11-21T03:19:23.094Z,18.20
2018-11-21T03:21:53.653Z,17.87
2018-11-21T03:24:23.713Z,16.77
2018-11-21T03:26:53.431Z,17.73
2018-11-21T03:29:23.614Z,19.00
2018-11-21T03:31:53.577Z,18.37
2018-11-21T03:34:42.314Z,18.10
2018-11-21T03:37:31.455Z,18.10
2018-11-21T03:40:20.485Z,17.97
2018-11-21T03:43:09.183Z,18.90
2018-11-21T03:45:58.239Z,16.67
2018-11-21T03:48:27.869Z,17.40
2018-11-21T03:50:57.554Z,17.67
2018-11-21T03:53:43.646Z,17.80
2018-11-21T03:56:32.415Z,16.43
2018-11-21T03:59:02.264Z,17.57
2018-11-21T04:01:33.430Z,18.50
2018-11-21T04:04:03.654Z,17.90
2018-11-21T04:06:52.692Z,18.37
2018-11-21T04:09:42.035Z,18.10
2018-11-21T04:12:12.324Z,17.67
2018-11-21T04:15:01.076Z,17.83
2018-11-21T04:17:50.073Z,17.73
2018-11-21T04:20:19.605Z,16.43
2018-11-21T04:23:09.102Z,17.50
2018-11-21T04:25:39.039Z,17.57
2018-11-21T04:28:09.379Z,18.17
2018-11-21T04:30:39.279Z,17.77
2018-11-21T04:33:28.716Z,17.27
2018-11-21T04:35:59.177Z,18.40
2018-11-21T04:38:29.681Z,17.63
2018-11-21T04:40:59.457Z,17.40
2018-11-21T04:43:28.962Z,18.07
2018-11-21T04:46:03.542Z,17.60
2018-11-21T04:48:33.771Z,17.77
2018-11-21T04:51:03.984Z,17.53
2018-11-21T04:53:52.706Z,15.57
2018-11-21T04:56:41.751Z,15.77
2018-11-21T04:59:55.871Z,17.07
2018-11-21T05:02:25.856Z,17.97
2018-11-21T05:04:56.067Z,17.33
2018-11-21T05:07:27.282Z,17.17
2018-11-21T05:10:15.902Z,18.73
2018-11-21T05:12:45.927Z,18.30
2018-11-21T05:15:16.695Z,18.07
2018-11-21T05:17:51.400Z,17.53
2018-11-21T05:20:21.643Z,18.60
2018-11-21T05:23:11.109Z,17.90
2018-11-21T05:25:41.423Z,17.70
2018-11-21T05:28:30.886Z,18.83
2018-11-21T05:34:16.005Z,17.50
2018-11-21T05:37:05.466Z,19.43
2018-11-21T05:39:54.188Z,19.27
2018-11-21T05:42:44.110Z,19.17
2018-11-21T05:45:34.610Z,17.63
2018-11-21T05:48:24.594Z,16.97
2018-11-21T05:51:13.656Z,16.10
2018-11-21T05:54:17.996Z,16.83
2018-11-21T05:57:09.007Z,15.63
2018-11-21T05:59:39.703Z,17.57
2018-11-21T06:02:10.134Z,17.37
2018-11-21T06:04:59.121Z,18.03
2018-11-21T06:07:48.576Z,17.27
2018-11-21T06:10:27.539Z,17.70
2018-11-21T06:13:14.223Z,16.47
2018-11-21T06:16:04.971Z,17.40
2018-11-21T06:18:34.811Z,17.67
2018-11-21T06:21:04.594Z,18.73
2018-11-21T06:23:53.759Z,18.17
2018-11-21T06:26:25.508Z,16.90
2018-11-21T06:29:14.511Z,17.10
2018-11-21T06:31:44.404Z,17.73
2018-11-21T06:34:33.509Z,18.33
2018-11-21T06:37:23.630Z,16.67
2018-11-21T06:39:53.421Z,16.80
2018-11-21T06:42:52.731Z,17.13
2018-11-21T06:45:24.297Z,18.37
2018-11-21T06:47:54.539Z,18.30
2018-11-21T06:50:23.938Z,17.87
2018-11-21T06:52:54.461Z,18.07
2018-11-21T06:55:24.315Z,17.57
2018-11-21T06:58:16.005Z,18.00
2018-11-21T07:00:45.571Z,17.73
2018-11-21T07:03:34.634Z,18.37
2018-11-21T07:06:04.813Z,18.13
2018-11-21T07:08:53.874Z,16.63
2018-11-21T07:11:23.320Z,17.33
2018-11-21T07:13:53.400Z,16.47
2018-11-21T07:16:42.798Z,17.83
2018-11-21T07:19:12.186Z,16.77
2018-11-21T07:21:42.201Z,16.70
2018-11-21T07:24:11.877Z,17.87
2018-11-21T07:27:00.888Z,17.40
2018-11-21T07:29:34.727Z,18.70
2018-11-21T07:32:00.030Z,18.13
2018-11-21T07:34:49.073Z,17.60
2018-11-21T07:37:19.310Z,17.87
2018-11-21T07:40:09.050Z,17.23
2018-11-21T07:42:39.019Z,17.30
2018-11-21T07:45:27.840Z,18.97
2018-11-21T07:47:57.749Z,17.37
2018-11-21T07:50:46.520Z,17.23
2018-11-21T07:53:16.371Z,17.57
2018-11-21T07:55:46.530Z,18.33
2018-11-21T07:58:38.066Z,18.10
2018-11-21T08:01:15.007Z,17.90
2018-11-21T08:04:22.949Z,16.97
2018-11-21T08:06:56.865Z,17.77
2018-11-21T08:09:47.514Z,18.03
2018-11-21T08:12:36.279Z,17.60
2018-11-21T08:15:46.920Z,17.97
2018-11-21T08:18:53.461Z,17.97
2018-11-21T08:22:01.230Z,17.33
2018-11-21T08:24:50.184Z,17.70
2018-11-21T08:27:58.117Z,18.53
2018-11-21T08:30:47.384Z,18.17
2018-11-21T08:33:17.422Z,17.83
2018-11-21T08:36:06.905Z,18.10
2018-11-21T08:38:36.972Z,17.87
2018-11-21T08:41:25.869Z,17.80
2018-11-21T08:44:14.925Z,18.07
2018-11-21T08:46:44.270Z,18.30
2018-11-21T08:49:33.238Z,18.13
2018-11-21T08:52:22.010Z,18.93
2018-11-21T08:55:12.036Z,17.73
2018-11-21T08:58:00.787Z,18.37
2018-11-21T09:00:51.154Z,16.33
2018-11-21T09:03:40.141Z,19.60
2018-11-21T09:06:29.107Z,18.30
2018-11-21T09:09:17.853Z,19.53
2018-11-21T09:11:47.240Z,20.50
2018-11-21T09:14:36.663Z,21.23
2018-11-21T09:17:07.375Z,20.90
2018-11-21T09:19:37.334Z,21.73
2018-11-21T09:22:26.500Z,22.30
2018-11-21T09:25:15.095Z,22.20
2018-11-21T09:28:04.162Z,22.57
2018-11-21T09:30:53.196Z,22.13
2018-11-21T09:33:42.476Z,24.93
2018-11-21T09:36:12.416Z,22.47
2018-11-21T09:38:42.127Z,24.10
2018-11-21T09:41:12.117Z,21.20
2018-11-21T09:44:01.246Z,21.47
2018-11-21T09:46:31.272Z,23.77
2018-11-21T09:49:01.049Z,21.10
2018-11-21T09:51:50.402Z,23.33
2018-11-21T09:54:39.901Z,25.03
2018-11-21T09:57:29.056Z,23.63
2018-11-21T10:00:40.087Z,21.77
2018-11-21T10:03:13.084Z,22.17
2018-11-21T10:08:38.589Z,23.30
2018-11-21T10:11:27.961Z,24.70
2018-11-21T10:14:16.608Z,24.00
2018-11-21T10:16:46.476Z,24.70
2018-11-21T10:33:16.166Z,23.67
2018-11-21T10:35:52.053Z,20.90
2018-11-21T10:39:00.145Z,21.57
2018-11-21T10:41:29.757Z,20.07
2018-11-21T10:44:01.544Z,20.07
2018-11-21T10:46:31.031Z,20.00
2018-11-21T10:49:19.952Z,19.73
2018-11-21T10:51:49.563Z,19.77
2018-11-21T10:54:19.318Z,20.20
2018-11-21T10:56:49.801Z,19.67
2018-11-21T10:59:19.715Z,19.63
2018-11-21T11:02:27.602Z,20.27
2018-11-21T11:05:33.427Z,19.23
2018-11-21T11:08:22.114Z,19.63
2018-11-21T11:11:29.913Z,18.83
2018-11-21T11:14:22.002Z,20.20
2018-11-21T11:17:10.571Z,19.10
2018-11-21T11:20:14.338Z,20.13
2018-11-21T11:23:19.941Z,19.53
2018-11-21T11:26:06.982Z,19.50
2018-11-21T11:28:58.518Z,19.20
2018-11-21T11:31:47.067Z,17.97
2018-11-21T11:34:54.897Z,17.47
2018-11-21T11:37:43.514Z,17.47
2018-11-21T11:40:33.315Z,17.97
2018-11-21T11:43:44.209Z,18.50
2018-11-21T11:46:32.893Z,18.50
2018-11-21T11:49:40.757Z,18.30
2018-11-21T11:52:48.631Z,19.43
2018-11-21T11:55:37.184Z,18.07
2018-11-21T11:58:25.751Z,18.90
2018-11-21T12:01:39.326Z,16.97
2018-11-21T12:04:33.824Z,18.33
2018-11-21T12:07:41.971Z,17.60
2018-11-21T12:10:30.684Z,17.67
2018-11-21T12:13:38.840Z,17.73
2018-11-21T12:16:49.379Z,18.37
2018-11-21T12:19:26.323Z,17.07
2018-11-21T12:22:24.855Z,17.40
2018-11-21T12:25:13.393Z,17.33
2018-11-21T12:28:21.618Z,17.50
2018-11-21T12:31:10.205Z,17.87
2018-11-21T12:34:01.451Z,17.43
2018-11-21T12:36:50.043Z,17.17
2018-11-21T12:39:39.670Z,17.27
2018-11-21T12:42:28.182Z,16.97
2018-11-21T12:45:26.341Z,17.77
2018-11-21T12:48:27.363Z,16.90
2018-11-21T12:51:30.041Z,17.70
2018-11-21T12:54:18.522Z,17.33
2018-11-21T12:57:10.364Z,18.33
2018-11-21T13:00:18.127Z,18.00
2018-11-21T13:03:26.000Z,19.33
2018-11-21T13:06:14.549Z,18.23
2018-11-21T13:09:22.373Z,17.67
2018-11-21T13:12:11.248Z,18.00
2018-11-21T13:15:19.135Z,17.90
2018-11-21T13:18:27.039Z,17.20
2018-11-21T13:21:11.282Z,17.67
2018-11-21T13:24:19.378Z,16.30
2018-11-21T13:27:27.245Z,16.57
2018-11-21T13:30:15.872Z,17.30
2018-11-21T13:33:07.333Z,17.53
2018-11-21T13:36:15.182Z,17.07
2018-11-21T13:42:20.284Z,18.73
2018-11-21T13:45:28.161Z,18.43
2018-11-21T13:48:16.663Z,17.40
2018-11-21T13:51:05.206Z,18.03
2018-11-21T13:53:53.736Z,17.27
2018-11-21T13:56:23.362Z,17.87
2018-11-21T13:58:53.004Z,18.07
2018-11-21T14:01:42.219Z,17.37
2018-11-21T14:04:14.439Z,18.57
2018-11-21T14:07:03.884Z,16.87
2018-11-21T14:09:33.514Z,17.43
2018-11-21T14:12:22.727Z,18.27
2018-11-21T14:14:55.449Z,17.50
2018-11-21T14:17:42.903Z,18.07
2018-11-21T14:20:13.399Z,17.50
2018-11-21T14:23:02.301Z,17.83
2018-11-21T14:25:31.883Z,16.93
2018-11-21T14:28:21.041Z,18.07
2018-11-21T14:30:50.617Z,17.10
2018-11-21T14:33:20.302Z,17.40
2018-11-21T14:35:55.967Z,17.57
2018-11-21T14:38:38.962Z,17.43
2018-11-21T14:41:27.784Z,17.10
2018-11-21T14:44:16.718Z,17.80
2018-11-21T14:47:07.071Z,17.20
2018-11-21T14:49:57.811Z,17.57
2018-11-21T14:52:46.623Z,18.87
2018-11-21T14:55:16.194Z,17.60
2018-11-21T14:57:45.865Z,16.93
2018-11-21T15:00:35.006Z,16.80
2018-11-21T15:03:04.633Z,16.60
2018-11-21T15:05:53.674Z,17.67
2018-11-21T15:08:42.503Z,18.80
2018-11-21T15:11:12.074Z,19.30
2018-11-21T15:14:01.136Z,17.30
2018-11-21T15:17:08.948Z,17.73
2018-11-21T15:19:38.586Z,17.97
2018-11-21T15:22:08.129Z,18.30
2018-11-21T15:24:56.984Z,18.70
2018-11-21T15:27:46.024Z,19.07
2018-11-21T15:30:18.442Z,17.03
2018-11-21T15:32:48.132Z,17.57
2018-11-21T15:35:37.175Z,19.80
2018-11-21T15:38:27.092Z,18.13
2018-11-21T15:40:56.715Z,19.23
2018-11-21T15:43:45.736Z,19.23
2018-11-21T15:46:15.452Z,19.93
2018-11-21T15:49:04.332Z,19.60
2018-11-21T15:51:33.927Z,18.93
2018-11-21T15:54:03.520Z,18.63
2018-11-21T15:56:33.118Z,20.50
2018-11-21T15:59:02.567Z,18.80
2018-11-21T16:01:32.238Z,18.13
2018-11-21T16:04:01.790Z,19.33
2018-11-21T16:06:31.432Z,18.40
2018-11-21T16:09:01.066Z,17.93
2018-11-21T16:11:30.605Z,19.23
2018-11-21T16:14:00.207Z,19.70
2018-11-21T16:16:32.623Z,18.90
2018-11-21T16:19:21.515Z,19.67
2018-11-21T16:21:51.137Z,20.53
2018-11-21T16:24:20.745Z,19.47
2018-11-21T16:26:50.613Z,19.33
2018-11-21T16:29:39.506Z,21.60
2018-11-21T16:32:09.064Z,19.83
2018-11-21T16:34:57.952Z,20.37
2018-11-21T16:37:27.548Z,18.90
2018-11-21T16:39:57.107Z,19.50
2018-11-21T16:42:26.666Z,20.20
2018-11-21T16:44:56.224Z,19.27
2018-11-21T16:47:25.804Z,19.37
2018-11-21T16:49:55.368Z,19.90
2018-11-21T16:52:44.255Z,19.13
2018-11-21T16:55:33.183Z,17.37
2018-11-21T16:58:03.536Z,18.27
2018-11-21T17:00:35.549Z,17.90
2018-11-21T17:03:05.077Z,18.03
2018-11-21T17:05:34.670Z,17.53
